• Join FlightAware (Why Join?)
  • Login
  • US Flag 
04:58AM EDT


 

Airport Tracker/Info


-or-


 

Live Flight TrackerFlight Track Log ✈ AXM5246 ✈ 29-Jun-2013 ✈ WMKK / KUL - WBGB / BTU

Flight Track Log - Related Links

Times and Time Zones

All times are in EDT time to prevent confusion due to time zone crossing. See the AXM5246 flight status page for this flight to view local times or setup timezone preferences in your user account.

Time Position Orientation Groundspeed Altitude Reporting Facility
EDT Latitude Longitude Course Direction KTS MPH feet Rate Location/Type
06:51PM 2.7950 101.6920 328° Northwest 174 200 1,700  Level FlightAware
06:51PM 2.8130 101.6800 326° Northwest 210 242 2,200 1,980 Climbing FlightAware
06:51PM 2.8290 101.6700 328° Northwest 212 244 3,200 3,060 Climbing FlightAware
06:52PM 2.8570 101.6590 339° North 214 246 4,700 1,560 Climbing FlightAware
06:52PM 2.8770 101.6540 346° North 214 246 4,700 2,160 Level FlightAware
06:53PM 2.8880 101.6870 72° East 246 283 6,200 4,320 Climbing FlightAware
06:53PM 2.8900 101.6910 63° Northeast 249 287 6,300 2,340 Climbing FlightAware
06:53PM 2.9090 101.7400 69° East 289 333 7,700 2,340 Climbing FlightAware
06:54PM 2.9200 101.7660 67° East 293 337 8,700 2,340 Climbing FlightAware
06:54PM 2.9440 101.8230 67° East 307 353 10,500 1,800 Climbing FlightAware
06:55PM 2.9830 101.8870 59° Northeast 361 415 11,500 1,980 Climbing FlightAware
06:56PM 3.0580 101.9880 53° Northeast 372 428 14,600 2,460 Climbing FlightAware
06:58PM 3.1290 102.0860 54° Northeast 377 434 17,400 1,980 Climbing FlightAware
06:58PM 3.1510 102.1530 72° East 390 449 18,500 1,560 Climbing FlightAware
06:59PM 3.1650 102.2280 79° East 399 459 19,700 1,920 Climbing FlightAware
07:00PM 3.1920 102.3750 80° East 407 468 22,200 1,680 Climbing FlightAware
07:02PM 3.2340 102.6080 90° East 427 491 25,200 1,020 Climbing FlightAware
07:03PM 3.1917 102.5826 90° East  Level Estimated
07:04PM 3.2630 102.7580 79° East 428 493 25,800  Level FlightAware
07:05PM 3.2810 102.8580 80° East 430 495 27,800 1,500 Climbing FlightAware
07:06PM 3.3100 103.0180 80° East 435 501 29,100 1,620 Climbing FlightAware
07:07PM 3.3290 103.1240 80° East 435 501 31,000 1,500 Climbing FlightAware
07:07PM 3.3420 103.1970 80° East 432 497 31,000  Level FlightAware
07:08PM 3.3580 103.2820 79° East 432 497 31,000  Level FlightAware
07:09PM 3.3700 103.3430 79° East 432 497 31,000  Level FlightAware
07:09PM 3.3850 103.4190 79° East 432 497 31,000 1,080 Level FlightAware
07:10PM 3.3640 103.4870 107° East 33,000 1,860 Climbing FlightAware
07:10PM 3.3440 103.5640 105° East 421 484 33,000 240 Level FlightAware
07:11PM 3.3200 103.6520 105° East 423 487 33,400 780 Climbing FlightAware
07:12PM 3.2980 103.7310 106° East 422 486 34,200 780 Climbing FlightAware
07:13PM 3.2760 103.8110 105° East 431 496 34,600 840 Climbing FlightAware
07:14PM 3.2480 103.9130 105° East 430 495 35,600 1,080 Climbing FlightAware
07:14PM 3.2230 104.0030 106° East 428 493 36,400 960 Climbing FlightAware
07:15PM 3.2030 104.0750 106° East 426 490 37,000 360 Climbing FlightAware
07:16PM 3.1760 104.1720 106° East 423 487 37,000  Level FlightAware
07:16PM 3.1570 104.2400 106° East 422 486 37,000  Level FlightAware
07:17PM 3.1350 104.3230 105° East 422 486 37,000  Level FlightAware
07:18PM 3.1230 104.3650 106° East 421 484 37,000  Level FlightAware
07:18PM 3.0940 104.4720 105° East 422 486 37,000  Level FlightAware
07:19PM 3.0730 104.5470 106° East 421 484 37,000  Level FlightAware
07:20PM 3.0510 104.6270 105° East 421 484 37,000  Level FlightAware
07:20PM 3.0270 104.7140 105° East 422 486 37,000  Level FlightAware
07:21PM 3.0100 104.7780 105° East 422 486 37,000  Level FlightAware
07:22PM 2.9850 104.8640 106° East 426 490 37,000  Level FlightAware
07:23PM 2.9630 104.9470 105° East 428 493 37,000  Level FlightAware
07:23PM 2.9450 105.0130 105° East 428 493 37,000  Level FlightAware
07:24PM 2.9180 105.1090 106° East 426 490 37,000  Level FlightAware
07:25PM 2.8990 105.1760 106° East 425 489 37,000  Level FlightAware
07:26PM 2.8590 105.3210 105° East 424 488 37,000  Level FlightAware
07:26PM 2.8390 105.3940 105° East 421 484 37,000  Level FlightAware
07:27PM 2.8180 105.4720 105° East 421 484 37,000  Level FlightAware
07:28PM 2.7980 105.5450 105° East 421 484 37,000  Level FlightAware
07:29PM 2.7730 105.6360 105° East 421 484 37,000  Level FlightAware
07:29PM 2.7500 105.7190 106° East 423 487 37,000  Level FlightAware
07:30PM 2.7150 105.8450 106° East 424 488 37,000  Level FlightAware
07:31PM 2.6990 105.9050 105° East 424 488 37,000  Level FlightAware
07:32PM 2.6780 105.9820 105° East 424 488 37,000  Level FlightAware
07:33PM 2.6480 106.0880 106° East 421 484 37,000  Level FlightAware
07:33PM 2.6300 106.1550 105° East 421 484 37,000  Level FlightAware
07:34PM 2.5940 106.2880 105° East 421 484 37,000  Level FlightAware
07:35PM 2.5780 106.3470 105° East 421 484 37,000  Level FlightAware
07:36PM 2.5580 106.4210 105° East 421 484 37,000  Level FlightAware
07:36PM 2.5430 106.4780 105° East 421 484 37,000  Level FlightAware
07:37PM 2.5050 106.6050 107° East 416 479 37,000  Level FlightAware
07:38PM 2.4830 106.6860 105° East 418 481 37,000  Level FlightAware
07:38PM 2.4650 106.7500 106° East 416 479 37,000  Level FlightAware
07:39PM 2.4390 106.8460 105° East 415 478 37,000  Level FlightAware
07:40PM 2.4240 106.9000 106° East 415 478 37,000  Level FlightAware
07:41PM 2.4030 106.9800 105° East 415 478 37,000  Level FlightAware
07:41PM 2.3870 107.0370 106° East 415 478 37,000  Level FlightAware
07:42PM 2.3670 107.1130 105° East 415 478 37,000  Level FlightAware
07:43PM 2.3330 107.2290 106° East 416 479 37,000  Level FlightAware
07:44PM 2.3050 107.3280 106° East 417 480 37,000  Level FlightAware
07:44PM 2.2840 107.4060 105° East 416 479 37,000  Level FlightAware
07:45PM 2.2630 107.4840 105° East 416 479 37,000  Level FlightAware
07:46PM 2.2430 107.5600 105° East 416 479 37,000  Level FlightAware
07:47PM 2.2280 107.6140 106° East 416 479 37,000  Level FlightAware
07:48PM 2.1850 107.8490 80° East 415 478 37,000  Level FlightAware
07:49PM 2.2569 107.7860 80° East  Level Estimated
07:49PM 2.2140 107.9100 65° Northeast 410 472 37,000  Level FlightAware
07:50PM 2.2250 107.9760 81° East 410 472 37,000  Level FlightAware
07:50PM 2.2390 108.0580 80° East 408 470 37,000  Level FlightAware
07:51PM 2.2550 108.1480 80° East 408 470 37,000  Level FlightAware
07:52PM 2.2670 108.2220 81° East 409 471 37,000  Level FlightAware
07:52PM 2.2820 108.3050 80° East 411 473 37,000  Level FlightAware
07:53PM 2.2950 108.3780 80° East 412 474 37,000  Level FlightAware
07:54PM 2.3100 108.4620 80° East 412 474 37,000  Level FlightAware
07:54PM 2.3230 108.5370 80° East 412 474 37,000  Level FlightAware
07:55PM 2.3360 108.6130 80° East 412 474 37,000  Level FlightAware
07:56PM 2.3500 108.6950 80° East 413 475 37,000  Level FlightAware
07:57PM 2.3650 108.7790 80° East 414 476 37,000  Level FlightAware
07:57PM 2.3770 108.8470 80° East 416 479 37,000  Level FlightAware
07:58PM 2.3920 108.9360 80° East 419 482 37,000  Level FlightAware
07:59PM 2.4050 109.0110 80° East 419 482 37,000  Level FlightAware
07:59PM 2.4210 109.0990 80° East 419 482 37,000  Level FlightAware
08:00PM 2.4350 109.1760 80° East 417 480 37,000  Level FlightAware
08:01PM 2.4490 109.2550 80° East 416 479 37,000  Level FlightAware
08:01PM 2.4750 109.3320 71° East 416 479 37,000  Level FlightAware
08:02PM 2.5040 109.4090 69° East 416 479 37,000  Level FlightAware
08:03PM 2.5320 109.4820 69° East 415 478 37,000  Level FlightAware
08:04PM 2.5600 109.5590 70° East 416 479 37,000  Level FlightAware
08:04PM 2.5900 109.6390 69° East 417 480 37,000  Level FlightAware
08:05PM 2.6170 109.7150 70° East 417 480 37,000  Level FlightAware
08:06PM 2.6370 109.7840 74° East 416 479 37,000  Level FlightAware
08:06PM 2.6620 109.8710 74° East 415 478 37,000  Level FlightAware
08:07PM 2.6830 109.9450 74° East 414 476 37,000  Level FlightAware
08:08PM 2.6980 110.0290 80° East 415 478 37,000  Level FlightAware
08:09PM 2.7060 110.1070 84° East 413 475 37,000  Level FlightAware
08:09PM 2.7230 110.1870 78° East 414 476 37,000  Level FlightAware
08:10PM 2.7370 110.2570 79° East 414 476 37,000  Level FlightAware
08:11PM 2.7530 110.3330 78° East 414 476 37,000  Level FlightAware
08:11PM 2.7720 110.4240 78° East 414 476 37,000  Level FlightAware
08:12PM 2.7860 110.4930 79° East 413 475 37,000  Level FlightAware
08:13PM 2.8000 110.5640 79° East 413 475 37,000  Level FlightAware
08:13PM 2.8190 110.6590 79° East 413 475 37,000  Level FlightAware
08:14PM 2.8310 110.7390 81° East 413 475 37,000  Level FlightAware
08:15PM 2.8450 110.8150 80° East 413 475 37,000  Level FlightAware
08:16PM 2.8620 110.8950 78° East 413 475 37,000  Level FlightAware
08:16PM 2.8790 110.9710 77° East 413 475 37,000  Level FlightAware
08:17PM 2.8930 111.0300 77° East 412 474 37,000  Level FlightAware
08:18PM 2.9100 111.1060 77° East 412 474 37,000  Level FlightAware
08:18PM 2.9230 111.1630 77° East 412 474 37,000  Level FlightAware
08:19PM 2.9410 111.2390 77° East 412 474 37,000  Level FlightAware
08:20PM 2.9540 111.2960 77° East 412 474 37,000  Level FlightAware
08:21PM 2.9760 111.3940 77° East 412 474 37,000  Level FlightAware
08:21PM 2.9890 111.4510 77° East 412 474 37,000  Level FlightAware
08:22PM 3.0060 111.5230 77° East 412 474 37,000  Level FlightAware
08:23PM 3.0240 111.5990 77° East 412 474 37,000  Level FlightAware
08:23PM 3.0370 111.6580 78° East 412 474 37,000  Level FlightAware
08:24PM 3.0590 111.7520 77° East 412 474 37,000  Level FlightAware
08:25PM 3.0710 111.8060 77° East 412 474 37,000  Level FlightAware
08:26PM 3.0890 111.8840 77° East 412 474 37,000  Level FlightAware
08:28PM 3.0941 112.0490 88° East  Level Estimated
08:29PM 3.0971 112.1433 88° East  Level Estimated
08:30PM 3.1000 112.2377 88° East  Level Estimated
08:31PM 3.1029 112.3320 88° East  Level Estimated
08:32PM 3.1058 112.4263 88° East  Level Estimated
08:33PM 3.1087 112.5206 88° East  Level Estimated
08:34PM 3.1116 112.6149 88° East  Level Estimated
08:35PM 3.1144 112.7092 88° East  Level Estimated
08:36PM 3.1173 112.8035 88° East  Level Estimated
08:37PM 3.1202 112.8978 88° East  Level Estimated
08:38PM 3.1230 112.9921 88° East  Level Estimated
08:39PM 3.1239 113.0205 88° East  Level Estimated
08:40PM 3.1239 113.0205 90° East  Level Estimated
08:41PM 3.1239 113.0205 90° East  Level Estimated
08:42PM 3.1239 113.0205 90° East  Level Estimated
08:43PM 3.1239 113.0205 90° East  Level Estimated
08:44PM 3.1239 113.0205 90° East  Level Estimated
08:45PM 3.1239 113.0205 90° East  Level Estimated
08:46PM 3.1239 113.0205 90° East  Level Estimated
08:47PM 3.1239 113.0205 90° East  Level Estimated
08:48PM 3.1239 113.0205 90° East  Level Estimated
08:49PM 3.1239 113.0205 90° East  Level Estimated
08:50PM 3.1239 113.0205 90° East  Level Estimated
08:51PM 3.1239 113.0205 90° East  Level Estimated
08:52PM 3.1239 113.0205 90° East  Level Estimated
08:53PM 3.1239 113.0205 90° East  Level Estimated
08:54PM 3.1239 113.0205 90° East  Level Estimated
08:55PM 3.1239 113.0205 90° East  Level Estimated
08:56PM 3.1239 113.0205 90° East  Level Estimated
08:57PM 3.1239 113.0205 90° East  Level Estimated